createdAt,value
2017-11-10T00:01:34.738Z,29.70
2017-11-10T00:04:02.097Z,29.70
2017-11-10T00:06:29.398Z,29.33
2017-11-10T00:08:56.747Z,28.33
2017-11-10T00:11:24.051Z,29.20
2017-11-10T00:13:51.380Z,29.73
2017-11-10T00:16:18.716Z,28.50
2017-11-10T00:18:46.022Z,27.23
2017-11-10T00:21:13.355Z,30.43
2017-11-10T00:23:41.602Z,27.50
2017-11-10T00:26:08.926Z,28.60
2017-11-10T00:28:36.246Z,28.93
2017-11-10T00:31:03.870Z,28.30
2017-11-10T00:33:31.212Z,28.40
2017-11-10T00:35:58.537Z,28.43
2017-11-10T00:38:25.868Z,28.17
2017-11-10T00:40:53.198Z,28.97
2017-11-10T00:43:20.512Z,27.63
2017-11-10T00:45:47.842Z,26.87
2017-11-10T00:48:15.150Z,27.10
2017-11-10T00:50:42.494Z,27.30
2017-11-10T00:53:09.800Z,27.67
2017-11-10T00:55:37.143Z,26.10
2017-11-10T00:58:04.442Z,26.50
2017-11-10T01:00:31.866Z,27.20
2017-11-10T01:02:59.554Z,26.30
2017-11-10T01:05:26.922Z,26.83
2017-11-10T01:07:55.948Z,27.03
2017-11-10T01:10:25.464Z,28.53
2017-11-10T01:12:52.789Z,26.13
2017-11-10T01:15:20.132Z,26.60
2017-11-10T01:17:48.202Z,28.10
2017-11-10T01:20:15.546Z,27.67
2017-11-10T01:22:42.874Z,27.27
2017-11-10T01:25:10.690Z,30.17
2017-11-10T01:27:38.011Z,27.10
2017-11-10T01:30:05.323Z,24.60
2017-11-10T01:32:32.684Z,26.40
2017-11-10T01:35:00.316Z,27.17
2017-11-10T01:37:27.695Z,25.63
2017-11-10T01:39:55.990Z,26.20
2017-11-10T01:42:23.429Z,26.40
2017-11-10T01:44:50.729Z,25.90
2017-11-10T01:49:53.866Z,26.20
2017-11-10T01:52:21.227Z,30.80
2017-11-10T01:54:48.862Z,25.30
2017-11-10T01:57:16.207Z,26.20
2017-11-10T01:59:43.531Z,31.47
2017-11-10T02:02:10.867Z,27.33
2017-11-10T02:04:38.182Z,30.80
2017-11-10T02:07:05.527Z,27.53
2017-11-10T02:09:32.961Z,26.73
2017-11-10T02:12:00.309Z,30.17
2017-11-10T02:14:27.623Z,31.67
2017-11-10T02:16:54.922Z,28.27
2017-11-10T02:19:22.319Z,30.37
2017-11-10T02:21:50.574Z,30.30
2017-11-10T02:24:17.933Z,29.40
2017-11-10T02:26:45.244Z,27.20
2017-11-10T02:29:13.462Z,29.70
2017-11-10T02:31:41.604Z,29.23
2017-11-10T02:34:08.974Z,28.83
2017-11-10T02:36:36.320Z,26.97
2017-11-10T02:39:03.638Z,29.50
2017-11-10T02:41:30.954Z,29.00
2017-11-10T02:43:58.286Z,26.53
2017-11-10T02:46:25.603Z,30.87
2017-11-10T02:48:52.960Z,29.67
2017-11-10T02:51:20.278Z,28.83
2017-11-10T02:53:47.614Z,26.30
2017-11-10T02:56:14.978Z,26.90
2017-11-10T02:58:42.359Z,30.63
2017-11-10T03:01:09.728Z,30.40
2017-11-10T03:03:37.051Z,28.30
2017-11-10T03:06:04.374Z,29.13
2017-11-10T03:08:32.917Z,27.40
2017-11-10T03:11:00.258Z,25.40
2017-11-10T03:13:27.583Z,27.13
2017-11-10T03:15:54.898Z,25.30
2017-11-10T03:18:22.219Z,26.83
2017-11-10T03:20:49.546Z,27.10
2017-11-10T03:23:16.855Z,23.73
2017-11-10T03:25:44.193Z,25.47
2017-11-10T03:28:13.205Z,26.53
2017-11-10T03:30:40.531Z,24.80
2017-11-10T03:33:07.880Z,23.83
2017-11-10T03:35:36.187Z,26.30
2017-11-10T03:38:03.515Z,25.93
2017-11-10T03:40:30.863Z,24.60
2017-11-10T03:42:58.371Z,25.80
2017-11-10T03:45:25.766Z,24.83
2017-11-10T03:47:53.087Z,25.10
2017-11-10T03:50:20.404Z,25.00
2017-11-10T03:52:47.731Z,22.53
2017-11-10T03:55:15.035Z,23.40
2017-11-10T03:57:42.379Z,24.80
2017-11-10T04:00:09.702Z,23.47
2017-11-10T04:02:37.025Z,21.47
2017-11-10T04:05:04.349Z,23.57
2017-11-10T04:07:33.193Z,22.87
2017-11-10T04:10:00.570Z,23.43
2017-11-10T04:12:27.925Z,22.60
2017-11-10T04:14:55.234Z,21.13
2017-11-10T04:17:22.563Z,23.53
2017-11-10T04:19:49.915Z,21.47
2017-11-10T04:22:17.262Z,20.73
2017-11-10T04:24:44.566Z,20.97
2017-11-10T04:27:11.891Z,24.03
2017-11-10T04:29:39.194Z,22.03
2017-11-10T04:32:06.542Z,22.87
2017-11-10T04:34:33.858Z,23.37
2017-11-10T04:37:01.190Z,23.73
2017-11-10T04:39:29.391Z,23.00
2017-11-10T04:41:58.622Z,22.07
2017-11-10T04:44:26.085Z,22.73
2017-11-10T04:46:54.210Z,23.60
2017-11-10T04:49:21.556Z,23.27
2017-11-10T04:51:48.920Z,22.63
2017-11-10T04:54:16.282Z,22.63
2017-11-10T04:56:43.615Z,21.43
2017-11-10T04:59:10.945Z,22.83
2017-11-10T05:01:38.281Z,22.80
2017-11-10T05:04:05.647Z,24.57
2017-11-10T05:06:33.147Z,23.17
2017-11-10T05:09:00.498Z,24.53
2017-11-10T05:11:27.860Z,23.23
2017-11-10T05:13:55.182Z,26.67
2017-11-10T05:16:22.491Z,24.33
2017-11-10T05:18:50.458Z,26.60
2017-11-10T05:21:17.783Z,26.17
2017-11-10T05:23:45.147Z,26.80
2017-11-10T05:26:12.501Z,27.40
2017-11-10T05:28:39.833Z,25.80
2017-11-10T05:31:07.170Z,27.43
2017-11-10T05:33:34.474Z,28.03
2017-11-10T05:36:01.810Z,23.07
2017-11-10T05:38:29.121Z,26.50
2017-11-10T05:40:56.452Z,24.93
2017-11-10T05:43:23.753Z,25.73
2017-11-10T05:45:51.083Z,27.23
2017-11-10T05:48:18.386Z,25.60
2017-11-10T05:50:45.726Z,25.47
2017-11-10T05:53:13.064Z,25.50
2017-11-10T05:55:40.430Z,25.20
2017-11-10T05:58:07.787Z,25.10
2017-11-10T06:00:35.127Z,25.73
2017-11-10T06:03:02.443Z,25.00
2017-11-10T06:05:29.786Z,25.33
2017-11-10T06:07:57.103Z,25.63
2017-11-10T06:10:24.434Z,24.33
2017-11-10T06:12:52.162Z,24.10
2017-11-10T06:15:19.527Z,23.67
2017-11-10T06:17:46.839Z,24.13
2017-11-10T06:20:15.163Z,23.00
2017-11-10T06:22:42.485Z,24.10
2017-11-10T06:25:09.893Z,24.03
2017-11-10T06:27:37.278Z,24.93
2017-11-10T06:30:04.663Z,24.13
2017-11-10T06:32:32.304Z,22.60
2017-11-10T06:34:59.603Z,22.90
2017-11-10T06:37:26.942Z,23.30
2017-11-10T06:39:54.263Z,22.50
2017-11-10T06:42:21.590Z,23.37
2017-11-10T06:44:49.866Z,22.10
2017-11-10T06:47:17.221Z,21.63
2017-11-10T06:49:44.542Z,22.00
2017-11-10T06:52:11.861Z,23.27
2017-11-10T06:54:39.177Z,23.70
2017-11-10T06:57:06.515Z,20.87
2017-11-10T06:59:34.159Z,22.90
2017-11-10T07:02:01.494Z,22.13
2017-11-10T07:04:28.816Z,23.00
2017-11-10T07:06:56.134Z,23.67
2017-11-10T07:09:23.443Z,22.23
2017-11-10T07:11:51.009Z,23.00
2017-11-10T07:14:18.377Z,21.57
2017-11-10T07:16:45.671Z,20.57
2017-11-10T07:19:13.022Z,21.17
2017-11-10T07:21:40.396Z,23.33
2017-11-10T07:24:07.772Z,21.47
2017-11-10T07:26:35.096Z,22.23
2017-11-10T07:29:02.402Z,23.50
2017-11-10T07:31:29.726Z,22.73
2017-11-10T07:33:57.070Z,21.10
2017-11-10T07:36:24.432Z,20.53
2017-11-10T07:38:51.791Z,20.17
2017-11-10T07:41:19.118Z,21.50
2017-11-10T07:43:46.427Z,20.83
2017-11-10T07:46:13.755Z,21.57
2017-11-10T07:48:41.073Z,22.20
2017-11-10T07:51:08.438Z,20.93
2017-11-10T07:53:35.771Z,21.00
2017-11-10T07:56:03.270Z,19.80
2017-11-10T07:58:30.602Z,20.20
2017-11-10T08:00:57.927Z,20.17
2017-11-10T08:03:25.285Z,20.63
2017-11-10T08:05:52.586Z,19.90
2017-11-10T08:08:19.922Z,19.80
2017-11-10T08:10:47.270Z,20.67
2017-11-10T08:13:14.599Z,19.10
2017-11-10T08:15:41.911Z,18.67
2017-11-10T08:18:09.557Z,20.07
2017-11-10T08:20:36.894Z,20.70
2017-11-10T08:23:04.230Z,20.70
2017-11-10T08:25:31.537Z,20.57
2017-11-10T08:27:59.815Z,21.43
2017-11-10T08:30:27.157Z,20.40
2017-11-10T08:32:54.504Z,19.37
2017-11-10T08:35:21.810Z,21.03
2017-11-10T08:37:49.158Z,20.27
2017-11-10T08:40:16.482Z,18.93
2017-11-10T08:42:43.835Z,19.77
2017-11-10T08:45:11.153Z,21.87
2017-11-10T08:47:38.483Z,20.07
2017-11-10T08:50:05.798Z,20.20
2017-11-10T08:52:33.865Z,18.80
2017-11-10T08:55:01.187Z,19.97
2017-11-10T08:57:28.818Z,19.07
2017-11-10T08:59:56.151Z,19.33
2017-11-10T09:02:23.489Z,18.20
2017-11-10T09:04:50.838Z,19.00
2017-11-10T09:07:18.193Z,18.47
2017-11-10T09:09:45.523Z,18.33
2017-11-10T09:12:12.851Z,20.70
2017-11-10T09:14:40.171Z,19.40
2017-11-10T09:17:07.494Z,19.07
2017-11-10T09:19:34.860Z,17.77
2017-11-10T09:22:02.176Z,18.60
2017-11-10T09:24:29.494Z,17.90
2017-11-10T09:26:57.141Z,18.63
2017-11-10T09:29:26.077Z,15.27
2017-11-10T09:32:09.133Z,18.63
2017-11-10T09:34:54.292Z,16.93
2017-11-10T09:37:37.318Z,15.67
2017-11-10T09:40:20.094Z,16.70
2017-11-10T09:43:03.098Z,14.47
2017-11-10T09:45:42.225Z,15.60
2017-11-10T09:48:25.238Z,17.43
2017-11-10T09:50:58.134Z,15.30
2017-11-10T09:53:42.592Z,15.60
2017-11-10T09:56:29.637Z,15.03
2017-11-10T09:59:02.711Z,13.47
2017-11-10T10:01:31.769Z,15.00
2017-11-10T10:04:15.761Z,17.07
2017-11-10T10:06:59.791Z,13.40
2017-11-10T10:09:32.723Z,16.10
2017-11-10T10:12:04.958Z,14.97
2017-11-10T10:14:38.201Z,15.10
2017-11-10T10:17:22.098Z,15.17
2017-11-10T10:19:55.178Z,17.73
2017-11-10T10:22:27.230Z,14.47
2017-11-10T10:24:54.566Z,14.00
2017-11-10T10:27:21.911Z,14.47
2017-11-10T10:29:49.254Z,14.00
2017-11-10T10:32:16.586Z,14.27
2017-11-10T10:34:43.909Z,15.47
2017-11-10T10:37:11.232Z,14.67
2017-11-10T10:39:38.545Z,14.87
2017-11-10T10:42:05.919Z,13.77
2017-11-10T10:44:33.220Z,14.90
2017-11-10T10:47:00.560Z,13.60
2017-11-10T10:49:27.905Z,14.80
2017-11-10T10:51:55.238Z,14.70
2017-11-10T10:54:22.541Z,14.80
2017-11-10T10:56:49.889Z,15.10
2017-11-10T10:59:17.191Z,14.07
2017-11-10T11:01:44.498Z,14.03
2017-11-10T11:04:11.821Z,13.50
2017-11-10T11:06:39.126Z,13.80
2017-11-10T11:09:07.414Z,14.70
2017-11-10T11:11:34.786Z,13.57
2017-11-10T11:14:02.111Z,15.10
2017-11-10T11:16:29.417Z,12.77
2017-11-10T11:18:56.781Z,13.77
2017-11-10T11:21:24.122Z,14.03
2017-11-10T11:23:51.451Z,14.87
2017-11-10T13:41:21.456Z,10.77
2017-11-10T13:43:48.967Z,11.40
2017-11-10T13:46:16.804Z,11.50
2017-11-10T13:48:44.526Z,10.67
2017-11-10T13:51:11.997Z,11.93
2017-11-10T13:53:39.317Z,11.17
2017-11-10T13:56:10.569Z,11.93
2017-11-10T13:58:37.948Z,12.20
2017-11-10T14:01:05.390Z,12.83
2017-11-10T14:03:32.748Z,12.00
2017-11-10T14:06:00.241Z,12.97
2017-11-10T14:08:27.906Z,8.80
2017-11-10T14:10:55.579Z,10.97
2017-11-10T14:13:22.924Z,11.20
2017-11-10T14:15:50.541Z,12.10
2017-11-10T14:18:18.027Z,11.50
2017-11-10T14:20:45.670Z,11.47
2017-11-10T14:23:13.035Z,11.90
2017-11-10T14:25:40.681Z,11.10
2017-11-10T14:28:08.120Z,10.00
2017-11-10T14:30:35.822Z,12.70
2017-11-10T14:33:04.766Z,10.70
2017-11-10T14:35:32.562Z,10.93
2017-11-10T14:38:00.160Z,11.17
2017-11-10T14:40:27.774Z,10.30
2017-11-10T14:42:55.476Z,11.47
2017-11-10T14:45:23.218Z,11.40
2017-11-10T14:47:50.834Z,10.90
2017-11-10T14:50:18.163Z,9.50
2017-11-10T14:52:45.504Z,9.80
2017-11-10T14:55:13.168Z,11.10
2017-11-10T14:57:40.598Z,10.53
2017-11-10T15:00:08.410Z,8.50
2017-11-10T15:02:35.737Z,10.20
2017-11-10T15:05:03.091Z,9.67
2017-11-10T15:07:30.450Z,10.83
2017-11-10T15:09:58.093Z,9.43
2017-11-10T15:12:25.457Z,9.47
2017-11-10T15:14:53.089Z,9.93
2017-11-10T15:17:20.415Z,10.10
2017-11-10T15:19:48.317Z,10.23
2017-11-10T15:22:15.641Z,8.23
2017-11-10T15:24:43.188Z,8.73
2017-11-10T15:27:10.478Z,9.00
2017-11-10T15:29:37.797Z,10.03
2017-11-10T15:32:05.115Z,11.50
2017-11-10T15:34:32.441Z,10.60
2017-11-10T15:36:59.804Z,8.93
2017-11-10T15:39:27.123Z,9.10
2017-11-10T15:41:54.693Z,10.50
2017-11-10T15:44:23.616Z,10.83
2017-11-10T15:46:51.263Z,9.73
2017-11-10T15:49:18.595Z,9.83
2017-11-10T15:51:46.419Z,10.50
2017-11-10T15:54:13.767Z,10.27
2017-11-10T15:56:41.377Z,9.63
2017-11-10T15:59:09.161Z,9.80
2017-11-10T16:01:36.808Z,9.70
2017-11-10T16:04:04.122Z,9.00
2017-11-10T16:06:31.534Z,9.13
2017-11-10T16:08:59.228Z,10.00
2017-11-10T16:11:26.543Z,9.17
2017-11-10T16:13:53.858Z,9.73
2017-11-10T16:16:21.270Z,9.93
2017-11-10T16:18:48.894Z,9.37
2017-11-10T16:21:16.286Z,8.07
2017-11-10T16:23:43.937Z,8.97
2017-11-10T16:26:11.366Z,8.20
2017-11-10T16:28:38.751Z,9.33
2017-11-10T16:31:06.402Z,10.00
2017-11-10T16:33:33.770Z,10.63
2017-11-10T16:36:01.433Z,9.67
2017-11-10T16:38:28.988Z,9.20
2017-11-10T16:40:56.555Z,9.40
2017-11-10T16:43:24.008Z,9.53
2017-11-10T16:45:51.364Z,10.00
2017-11-10T16:48:18.994Z,10.30
2017-11-10T16:50:46.689Z,10.13
2017-11-10T16:53:15.074Z,10.00
2017-11-10T16:55:42.807Z,9.33
2017-11-10T16:58:10.188Z,8.57
2017-11-10T17:00:37.734Z,9.90
2017-11-10T17:03:05.408Z,10.10
2017-11-10T17:05:33.037Z,9.30
2017-11-10T17:08:00.365Z,9.77
2017-11-10T17:10:28.063Z,8.10
2017-11-10T17:12:55.388Z,9.00
2017-11-10T17:15:23.073Z,8.83
2017-11-10T17:17:50.426Z,8.20
2017-11-10T17:20:17.739Z,8.53
2017-11-10T17:22:45.067Z,8.90
2017-11-10T17:25:12.390Z,8.60
2017-11-10T17:27:39.740Z,8.80
2017-11-10T17:30:07.589Z,7.97
2017-11-10T17:32:35.479Z,7.83
2017-11-10T17:35:02.789Z,8.37
2017-11-10T17:37:30.319Z,7.23
2017-11-10T17:39:57.646Z,7.13
2017-11-10T17:42:24.994Z,7.77
2017-11-10T17:44:52.305Z,6.97
2017-11-10T17:47:19.645Z,6.83
2017-11-10T17:49:46.954Z,7.30
2017-11-10T17:52:14.272Z,4.40
2017-11-10T17:54:41.769Z,4.83
2017-11-10T17:57:09.058Z,3.90
2017-11-10T17:59:36.888Z,4.40
2017-11-10T18:02:04.182Z,4.77
2017-11-10T18:04:31.511Z,3.63
2017-11-10T18:06:59.339Z,2.50
2017-11-10T18:09:26.654Z,3.43
2017-11-10T18:11:53.969Z,3.57
2017-11-10T18:14:21.292Z,3.20
2017-11-10T18:16:49.167Z,3.20
2017-11-10T18:19:16.651Z,2.93
2017-11-10T18:21:43.945Z,2.90
2017-11-10T18:24:11.266Z,3.03
2017-11-10T18:26:39.094Z,2.57
2017-11-10T18:29:07.027Z,2.90
2017-11-10T18:31:34.349Z,3.13
2017-11-10T18:34:02.280Z,2.47
2017-11-10T18:36:30.324Z,2.83
2017-11-10T18:38:57.615Z,2.70
2017-11-10T18:41:24.995Z,2.80
2017-11-10T18:43:52.831Z,2.90
2017-11-10T18:46:20.704Z,2.60
2017-11-10T18:48:53.833Z,2.97
2017-11-10T18:51:21.279Z,2.87
2017-11-10T18:53:48.922Z,2.80
2017-11-10T18:56:16.254Z,3.23
2017-11-10T18:58:43.646Z,3.60
2017-11-10T19:01:11.504Z,2.30
2017-11-10T19:03:38.870Z,2.80
2017-11-10T19:06:06.263Z,1.90
2017-11-10T19:08:33.557Z,2.90
2017-11-10T19:11:00.875Z,2.50
2017-11-10T19:13:28.278Z,2.50
2017-11-10T19:15:55.816Z,2.77
2017-11-10T19:18:23.194Z,2.90
2017-11-10T19:20:50.624Z,2.30
2017-11-10T19:23:18.687Z,2.63
2017-11-10T19:25:46.556Z,2.77
2017-11-10T19:28:14.265Z,2.53
2017-11-10T19:30:41.921Z,2.60
2017-11-10T19:33:09.665Z,2.70
2017-11-10T19:35:37.051Z,2.80
2017-11-10T19:38:04.702Z,2.40
2017-11-10T19:40:32.043Z,2.67
2017-11-10T19:42:59.712Z,2.77
2017-11-10T19:45:27.039Z,2.93
2017-11-10T19:47:54.340Z,3.17
2017-11-10T19:50:21.726Z,2.50
2017-11-10T19:52:49.025Z,2.80
2017-11-10T19:55:16.414Z,2.60
2017-11-10T19:57:43.827Z,2.30
2017-11-10T20:00:11.534Z,2.87
2017-11-10T20:02:40.996Z,2.93
2017-11-10T20:05:08.372Z,2.70
2017-11-10T20:07:35.697Z,2.10
2017-11-10T20:10:03.150Z,2.97
2017-11-10T20:12:30.456Z,3.13
2017-11-10T20:14:57.939Z,2.33
2017-11-10T20:17:25.615Z,2.47
2017-11-10T20:19:53.396Z,2.50
2017-11-10T20:22:20.680Z,1.67
2017-11-10T20:24:47.981Z,2.90
2017-11-10T20:27:15.301Z,2.30
2017-11-10T20:29:42.985Z,3.03
2017-11-10T20:32:10.578Z,2.50
2017-11-10T20:34:37.877Z,2.60
2017-11-10T20:37:05.596Z,3.83
2017-11-10T20:39:33.332Z,1.90
2017-11-10T20:42:01.242Z,2.00
2017-11-10T20:44:28.820Z,2.30
2017-11-10T20:46:56.175Z,2.30
2017-11-10T20:49:23.475Z,2.17
2017-11-10T20:51:50.816Z,2.03
2017-11-10T20:54:18.298Z,2.60
2017-11-10T20:56:45.997Z,2.70
2017-11-10T20:59:13.288Z,2.93
2017-11-10T21:01:40.606Z,3.27
2017-11-10T21:04:07.924Z,2.90
2017-11-10T21:06:35.254Z,2.70
2017-11-10T21:09:02.566Z,3.50
2017-11-10T21:11:29.877Z,3.57
2017-11-10T21:13:57.191Z,3.30
2017-11-10T21:16:24.619Z,2.47
2017-11-10T21:18:52.346Z,2.70
2017-11-10T21:21:19.644Z,2.75
2017-11-10T21:23:47.910Z,3.20
2017-11-10T21:26:15.537Z,2.95
2017-11-10T21:28:43.306Z,3.20
2017-11-10T21:31:10.698Z,3.33
2017-11-10T21:33:38.326Z,3.30
2017-11-10T21:36:05.636Z,2.90
2017-11-10T21:38:32.941Z,2.50
2017-11-10T21:41:00.293Z,3.43
2017-11-10T21:43:28.823Z,3.10
2017-11-10T21:45:56.532Z,3.07
2017-11-10T21:48:23.849Z,3.10
2017-11-10T21:50:51.165Z,3.80
2017-11-10T21:53:18.603Z,3.40
2017-11-10T21:55:46.393Z,3.20
2017-11-10T21:58:13.998Z,3.30
2017-11-10T22:00:41.692Z,3.13
2017-11-10T22:03:09.475Z,2.90
2017-11-10T22:05:37.195Z,4.50
2017-11-10T22:08:04.886Z,4.00
2017-11-10T22:10:32.633Z,3.00
2017-11-10T22:13:00.311Z,3.93
2017-11-10T22:15:28.027Z,3.17
2017-11-10T22:17:55.767Z,3.23
2017-11-10T22:20:23.093Z,3.03
2017-11-10T22:22:50.755Z,3.17
2017-11-10T22:25:18.415Z,3.47
2017-11-10T22:27:45.864Z,3.27
2017-11-10T22:30:15.993Z,3.27
2017-11-10T22:32:43.392Z,2.33
2017-11-10T22:35:10.687Z,3.27
2017-11-10T22:37:38.338Z,2.33
2017-11-10T22:40:05.986Z,3.00
2017-11-10T22:42:33.358Z,1.97
2017-11-10T22:45:00.986Z,2.10
2017-11-10T22:47:28.404Z,2.10
2017-11-10T22:49:55.726Z,1.93
2017-11-10T22:52:23.096Z,1.87
2017-11-10T22:54:50.706Z,1.93
2017-11-10T22:57:18.199Z,1.60
2017-11-10T22:59:45.501Z,2.20
2017-11-10T23:02:12.823Z,1.70
2017-11-10T23:04:40.469Z,2.10
2017-11-10T23:07:08.197Z,1.83
2017-11-10T23:09:35.897Z,2.00
2017-11-10T23:12:03.226Z,2.00
2017-11-10T23:14:30.561Z,2.67
2017-11-10T23:16:57.934Z,2.47
2017-11-10T23:19:25.626Z,2.30
2017-11-10T23:21:53.254Z,2.40
2017-11-10T23:24:20.734Z,2.30
2017-11-10T23:26:48.066Z,2.47
2017-11-10T23:29:15.405Z,2.47
2017-11-10T23:31:42.709Z,2.33
2017-11-10T23:34:10.468Z,2.40
2017-11-10T23:36:38.114Z,2.67
2017-11-10T23:39:05.452Z,2.47
2017-11-10T23:41:32.752Z,2.20
2017-11-10T23:44:00.370Z,2.30
2017-11-10T23:46:27.690Z,2.73
2017-11-10T23:48:55.410Z,2.50
2017-11-10T23:51:23.051Z,2.70
2017-11-10T23:53:50.743Z,2.53
2017-11-10T23:56:18.388Z,3.00
2017-11-10T23:58:46.040Z,2.67
